Time;durP1;ratioP1;P1;durP2;ratioP2;P2;SDS_P1;SDS_P2;PMS_P1;PMS_P2;Temp;Humidity;BMP_temperature;BMP_pressure;BME280_temperature;BME280_humidity;BME280_pressure;Samples;Min_cycle;Max_cycle;Signal;HPM_P1;HPM_P2
2023/12/31 00:02:16;;;;;;;18.47;10.80;;;7.50;97.90;;;7.50;60.81;95293.34;5009335;28;20460;-57
2023/12/31 00:04:44;;;;;;;30.00;11.77;;;7.60;97.90;;;7.52;61.19;95294.88;5009649;28;20511;-56
2023/12/31 00:07:11;;;;;;;19.97;11.17;;;7.60;97.80;;;7.53;61.11;95293.97;5009503;28;20458;-56
2023/12/31 00:09:40;;;;;;;22.43;11.10;;;7.60;98.00;;;7.55;61.18;95301.69;5009486;28;20616;-57
2023/12/31 00:12:07;;;;;;;17.03;11.07;;;7.60;97.80;;;7.57;61.12;95304.22;5009428;28;20519;-58
2023/12/31 00:14:35;;;;;;;21.20;13.90;;;7.60;97.90;;;7.56;61.28;95297.28;5009732;28;20581;-58
2023/12/31 00:17:02;;;;;;;22.73;13.90;;;7.60;98.10;;;7.54;61.31;95303.50;5009647;28;20878;-55
2023/12/31 00:19:29;;;;;;;24.33;13.90;;;7.60;98.00;;;7.53;61.36;95304.44;5009287;28;20449;-57
2023/12/31 00:21:56;;;;;;;29.90;14.27;;;7.60;98.20;;;7.52;60.85;95296.69;5009252;28;20500;-58
2023/12/31 00:24:24;;;;;;;25.43;15.30;;;7.60;97.90;;;7.50;61.45;95306.44;5009278;28;20543;-55
2023/12/31 00:26:52;;;;;;;27.70;15.90;;;7.60;98.00;;;7.48;61.44;95303.06;5009284;28;20934;-55
2023/12/31 00:29:19;;;;;;;30.20;15.93;;;7.50;97.90;;;7.44;61.09;95315.56;5009265;28;20825;-55
2023/12/31 00:31:47;;;;;;;25.43;14.73;;;7.50;97.90;;;7.43;61.15;95303.41;5009066;28;20457;-56
2023/12/31 00:34:15;;;;;;;31.00;15.47;;;7.50;97.90;;;7.41;61.45;95305.31;5008850;28;20878;-56
2023/12/31 00:36:42;;;;;;;27.50;15.50;;;7.50;98.10;;;7.40;61.57;95311.47;5009036;28;20446;-56
2023/12/31 00:39:11;;;;;;;22.97;14.93;;;7.50;98.10;;;7.36;61.65;95310.88;5009231;28;20454;-58
2023/12/31 00:41:38;;;;;;;22.03;14.33;;;7.50;98.20;;;7.33;62.02;95305.03;5009290;28;20470;-58
2023/12/31 00:44:06;;;;;;;30.67;15.00;;;7.40;98.30;;;7.31;61.86;95312.13;5008799;28;20460;-56
2023/12/31 00:46:34;;;;;;;29.83;15.33;;;7.40;98.40;;;7.27;61.37;95314.13;5008665;28;20496;-57
2023/12/31 00:49:01;;;;;;;31.67;16.13;;;7.40;98.20;;;7.25;61.54;95309.94;5009022;28;20464;-60
2023/12/31 00:51:29;;;;;;;26.43;16.00;;;7.30;98.30;;;7.23;61.94;95311.84;5008601;28;20552;-54
2023/12/31 00:53:56;;;;;;;30.50;16.97;;;7.30;98.60;;;7.21;61.89;95308.50;5008576;28;20449;-58
2023/12/31 00:56:24;;;;;;;27.10;16.53;;;7.30;98.80;;;7.21;62.42;95314.56;5014434;28;20481;-57
2023/12/31 00:58:51;;;;;;;23.87;15.37;;;7.30;99.10;;;7.22;62.46;95318.88;5015181;28;20607;-56
2023/12/31 01:01:20;;;;;;;31.43;16.60;;;7.30;99.00;;;7.19;61.79;95311.25;5015457;28;20473;-56
2023/12/31 01:03:48;;;;;;;20.80;13.47;;;7.30;98.80;;;7.21;62.29;95308.50;5015153;28;20457;-58
2023/12/31 01:06:15;;;;;;;30.90;15.77;;;7.30;99.10;;;7.22;62.21;95310.16;5014919;28;20512;-58
2023/12/31 01:08:42;;;;;;;23.17;14.70;;;7.30;99.00;;;7.22;62.44;95304.94;5015399;28;20516;-57
2023/12/31 01:11:09;;;;;;;33.90;15.87;;;7.30;99.10;;;7.22;62.75;95305.78;5015007;28;20473;-56
2023/12/31 01:13:37;;;;;;;27.30;15.67;;;7.30;99.10;;;7.22;61.90;95297.09;5014938;28;20453;-58
2023/12/31 01:16:05;;;;;;;28.37;15.83;;;7.30;99.10;;;7.21;62.63;95304.09;5014672;28;20512;-57
2023/12/31 01:18:33;;;;;;;40.47;17.43;;;7.30;99.10;;;7.23;61.70;95296.16;5015085;28;20536;-56
2023/12/31 01:21:01;;;;;;;29.10;16.10;;;7.30;98.90;;;7.19;62.57;95285.06;5014882;28;20516;-56
2023/12/31 01:23:29;;;;;;;28.43;16.33;;;7.30;99.10;;;7.17;62.43;95294.78;5014788;28;20876;-55
2023/12/31 01:25:56;;;;;;;27.93;16.53;;;7.20;98.80;;;7.14;62.48;95295.88;5014730;28;20492;-59
2023/12/31 01:28:23;;;;;;;31.57;18.03;;;7.20;99.00;;;7.15;62.09;95310.59;5014750;28;20460;-57
2023/12/31 01:30:51;;;;;;;38.17;20.00;;;7.20;98.90;;;7.13;62.45;95303.81;5015087;28;20478;-57
2023/12/31 01:33:18;;;;;;;30.27;18.03;;;7.20;99.10;;;7.11;62.74;95293.47;5015222;28;20507;-58
2023/12/31 01:35:47;;;;;;;35.57;18.13;;;7.20;99.00;;;7.09;62.01;95289.28;5014881;28;21018;-57
2023/12/31 01:38:14;;;;;;;31.07;16.80;;;7.20;99.00;;;7.07;62.46;95291.19;5011416;28;20463;-55
2023/12/31 01:40:41;;;;;;;33.80;18.07;;;7.20;99.00;;;7.04;62.20;95286.97;5014842;28;20817;-57
2023/12/31 01:43:08;;;;;;;30.93;16.80;;;7.10;99.00;;;7.02;63.03;95286.25;5010941;28;20480;-58
2023/12/31 01:45:35;;;;;;;27.57;15.93;;;7.10;99.20;;;6.99;62.27;95294.31;5010761;28;20500;-58
2023/12/31 01:48:03;;;;;;;33.23;16.27;;;7.10;99.30;;;6.96;62.93;95295.38;5011087;28;20445;-58
2023/12/31 01:50:30;;;;;;;31.63;17.00;;;7.00;99.50;;;6.95;62.85;95300.69;5014704;28;20485;-57
2023/12/31 01:52:59;;;;;;;28.10;17.50;;;7.00;99.70;;;6.94;62.14;95296.41;5011035;28;20550;-55
2023/12/31 01:55:26;;;;;;;27.17;16.27;;;7.00;99.10;;;6.90;63.09;95297.59;5010988;28;20481;-55
2023/12/31 01:57:53;;;;;;;40.90;16.20;;;7.00;99.60;;;6.85;63.51;95292.66;5010596;28;20978;-59
2023/12/31 02:00:21;;;;;;;24.50;15.10;;;7.00;99.70;;;6.82;63.06;95298.94;5014519;28;20543;-58
2023/12/31 02:02:49;;;;;;;31.67;15.90;;;6.90;99.50;;;6.84;62.54;95300.63;5015074;28;20474;-58
2023/12/31 02:05:16;;;;;;;28.93;16.70;;;6.90;99.70;;;6.84;62.74;95292.78;5014578;28;20556;-57
2023/12/31 02:07:43;;;;;;;27.30;16.17;;;6.90;99.70;;;6.85;63.54;95286.59;5011504;28;20464;-56
2023/12/31 02:10:12;;;;;;;31.30;18.90;;;6.90;99.90;;;6.85;63.52;95282.22;5011333;28;21141;-61
2023/12/31 02:12:39;;;;;;;28.40;15.30;;;6.90;99.90;;;6.87;63.44;95279.50;5011861;28;20457;-55
2023/12/31 02:15:09;;;;;;;29.90;16.70;;;6.90;99.90;;;6.85;63.70;95277.00;5011272;28;20470;-55
2023/12/31 02:17:36;;;;;;;23.53;14.17;;;6.90;99.90;;;6.87;63.84;95275.09;5007481;28;20449;-55
2023/12/31 02:20:06;;;;;;;27.10;15.27;;;6.90;99.90;;;6.86;62.90;95272.59;5011447;28;20560;-58
2023/12/31 02:22:33;;;;;;;29.90;15.00;;;6.90;99.90;;;6.82;63.52;95267.56;5007473;28;20449;-57
2023/12/31 02:25:05;;;;;;;27.17;14.70;;;6.90;99.90;;;6.82;63.39;95271.97;5007084;28;20580;-55
2023/12/31 02:27:33;;;;;;;30.47;14.30;;;6.90;99.90;;;6.82;63.92;95275.41;5008091;28;20878;-57
2023/12/31 02:30:01;;;;;;;22.50;13.40;;;6.80;99.90;;;6.84;63.34;95274.47;5011586;28;20481;-54
2023/12/31 02:32:28;;;;;;;22.63;14.57;;;6.90;99.90;;;6.87;63.92;95263.81;5011248;28;20560;-58
2023/12/31 02:34:55;;;;;;;25.90;15.10;;;6.90;99.90;;;6.89;63.62;95262.72;5010997;28;21222;-58
2023/12/31 02:37:22;;;;;;;24.90;14.80;;;6.90;99.90;;;6.91;63.01;95258.25;5011506;28;20475;-58
2023/12/31 02:39:50;;;;;;;31.77;13.90;;;7.00;99.90;;;6.92;63.50;95253.84;5011017;28;20996;-57
2023/12/31 02:42:17;;;;;;;24.20;14.50;;;7.00;99.90;;;6.92;63.57;95259.91;5010857;28;20462;-55
2023/12/31 02:44:46;;;;;;;29.10;15.57;;;7.00;99.90;;;6.92;63.07;95254.69;5010748;28;20528;-58
2023/12/31 02:47:13;;;;;;;24.33;14.47;;;7.00;99.80;;;6.91;63.18;95253.03;5010910;28;20453;-56
2023/12/31 02:49:40;;;;;;;22.67;14.27;;;7.00;99.90;;;6.88;63.25;95245.41;5011068;28;20568;-57
2023/12/31 02:52:09;;;;;;;26.20;13.90;;;6.90;99.90;;;6.84;63.53;95254.38;5010638;28;20462;-55
2023/12/31 02:54:37;;;;;;;28.23;15.30;;;6.90;99.90;;;6.80;63.84;95264.22;5010670;28;20484;-57
2023/12/31 02:57:06;;;;;;;34.83;19.83;;;6.90;99.90;;;6.76;63.28;95257.53;5011181;28;20461;-56
2023/12/31 02:59:34;;;;;;;33.60;19.37;;;6.80;99.70;;;6.72;63.16;95261.28;5010648;28;20446;-55
2023/12/31 03:02:02;;;;;;;33.17;19.93;;;6.80;99.80;;;6.67;63.60;95255.56;5010790;28;20457;-58
2023/12/31 03:04:30;;;;;;;52.33;26.97;;;6.80;99.80;;;6.58;63.84;95264.03;5010629;28;20458;-57
2023/12/31 03:06:57;;;;;;;42.80;24.87;;;6.70;99.90;;;6.50;64.03;95263.75;5010608;28;20489;-58
2023/12/31 03:09:25;;;;;;;52.70;26.43;;;6.60;99.90;;;6.42;63.50;95259.88;5010439;28;20924;-56
2023/12/31 03:11:52;;;;;;;56.77;28.50;;;6.60;99.90;;;6.35;64.01;95257.78;5010756;28;21020;-56
2023/12/31 03:14:19;;;;;;;57.93;27.23;;;6.50;99.90;;;6.28;63.77;95257.38;5010559;28;20461;-58
2023/12/31 03:16:46;;;;;;;48.67;26.37;;;6.40;99.90;;;6.25;64.48;95262.78;5010510;28;20477;-56
2023/12/31 03:19:15;;;;;;;48.67;27.40;;;6.40;99.90;;;6.20;64.50;95263.09;5010438;28;20453;-58
2023/12/31 03:21:43;;;;;;;46.20;25.97;;;6.30;99.90;;;6.18;64.08;95267.59;5010513;28;20838;-58
2023/12/31 03:24:10;;;;;;;45.93;24.03;;;6.30;99.90;;;6.17;63.74;95265.09;5010532;28;20460;-56
2023/12/31 03:26:37;;;;;;;53.40;25.67;;;6.30;99.90;;;6.14;64.13;95266.13;5010472;28;20563;-59
2023/12/31 03:29:04;;;;;;;49.67;24.67;;;6.30;99.90;;;6.10;63.94;95260.28;5010353;28;20519;-58
2023/12/31 03:31:32;;;;;;;42.13;23.70;;;6.20;99.90;;;6.07;64.07;95257.88;5009997;28;20465;-57
2023/12/31 03:33:59;;;;;;;35.80;21.20;;;6.20;99.90;;;6.04;64.57;95252.88;5009936;28;20454;-56
2023/12/31 03:36:28;;;;;;;29.13;19.20;;;6.20;99.90;;;6.01;64.53;95260.03;5006733;28;20853;-56
2023/12/31 03:38:55;;;;;;;35.33;19.80;;;6.10;99.90;;;5.97;65.00;95259.41;5010225;28;20458;-58
2023/12/31 03:41:22;;;;;;;37.80;21.13;;;6.10;99.90;;;5.96;64.79;95257.72;5006474;28;20913;-58
2023/12/31 03:43:49;;;;;;;33.27;19.90;;;6.10;99.90;;;5.92;64.93;95262.31;5005789;28;20461;-57
2023/12/31 03:46:17;;;;;;;36.17;21.87;;;6.00;99.90;;;5.90;64.77;95265.94;5009802;28;20504;-56
2023/12/31 03:48:44;;;;;;;37.37;22.33;;;6.00;99.90;;;5.87;64.44;95264.41;5005668;28;20454;-57
2023/12/31 03:51:11;;;;;;;38.17;21.70;;;6.00;99.90;;;5.85;64.40;95261.03;5009767;28;20999;-57
2023/12/31 03:53:40;;;;;;;36.67;22.33;;;6.00;99.90;;;5.84;64.54;95268.97;5010112;28;20453;-58
2023/12/31 03:56:09;;;;;;;39.47;22.20;;;5.90;99.90;;;5.83;64.96;95275.13;5005594;28;20488;-58
2023/12/31 03:58:37;;;;;;;39.70;23.33;;;5.90;99.90;;;5.78;64.33;95274.59;5006012;28;20953;-56
2023/12/31 04:01:05;;;;;;;39.80;21.60;;;5.90;99.90;;;5.74;64.90;95273.97;5005825;28;20473;-57
2023/12/31 04:03:32;;;;;;;34.63;21.23;;;5.90;99.90;;;5.71;64.81;95269.75;5005930;28;20454;-58
2023/12/31 04:05:59;;;;;;;38.60;22.13;;;5.80;99.90;;;5.69;65.03;95271.66;5005399;28;20497;-56
2023/12/31 04:08:27;;;;;;;35.33;22.50;;;5.80;99.90;;;5.65;65.07;95259.72;5009448;28;20461;-57
2023/12/31 04:10:55;;;;;;;36.70;21.70;;;5.80;99.90;;;5.64;65.08;95273.72;5009264;28;20470;-55
2023/12/31 04:13:22;;;;;;;33.50;19.70;;;5.80;99.90;;;5.61;65.33;95276.53;5005528;28;20450;-56
2023/12/31 04:15:50;;;;;;;31.90;19.50;;;5.70;99.90;;;5.60;65.42;95274.03;5005587;28;21001;-56
2023/12/31 04:18:17;;;;;;;43.77;23.70;;;5.70;99.90;;;5.56;65.09;95281.19;5009072;28;20567;-54
2023/12/31 04:20:44;;;;;;;47.47;20.77;;;5.70;99.90;;;5.52;65.38;95274.53;5009178;28;20552;-55
2023/12/31 04:23:12;;;;;;;39.07;21.53;;;5.70;99.90;;;5.51;65.78;95288.50;5009316;28;20450;-59
2023/12/31 04:25:39;;;;;;;37.17;22.20;;;5.60;99.90;;;5.47;65.14;95280.03;5009403;28;20920;-56
2023/12/31 04:28:08;;;;;;;43.67;21.60;;;5.60;99.90;;;5.44;65.80;95290.66;5009631;28;20783;-58
2023/12/31 04:30:37;;;;;;;37.67;20.73;;;5.60;99.90;;;5.43;65.94;95295.97;5008969;28;20472;-56
2023/12/31 04:33:05;;;;;;;41.27;22.60;;;5.50;99.90;;;5.38;65.55;95297.09;5009576;28;20547;-55
2023/12/31 04:35:32;;;;;;;36.93;23.17;;;5.50;99.90;;;5.35;65.61;95302.50;5005329;28;20484;-57
2023/12/31 04:37:59;;;;;;;41.63;22.67;;;5.50;99.90;;;5.33;65.31;95307.00;5009027;28;20518;-58
2023/12/31 04:40:26;;;;;;;42.70;23.53;;;5.50;99.90;;;5.32;66.58;95302.72;5008776;28;20473;-56
2023/12/31 04:42:54;;;;;;;44.57;22.90;;;5.50;99.90;;;5.29;66.13;95305.50;5008970;28;20453;-55
2023/12/31 04:45:22;;;;;;;37.17;22.00;;;5.40;99.90;;;5.26;66.05;95297.88;5008973;28;20474;-58
2023/12/31 04:47:50;;;;;;;42.83;23.23;;;5.40;99.90;;;5.23;66.01;95305.91;5009292;28;20461;-57
2023/12/31 04:50:17;;;;;;;40.00;23.23;;;5.40;99.90;;;5.22;65.58;95306.84;5008701;28;20547;-58
2023/12/31 04:52:44;;;;;;;37.73;22.13;;;5.30;99.90;;;5.17;66.12;95301.91;5008641;28;20807;-56
2023/12/31 04:55:12;;;;;;;35.33;19.03;;;5.30;99.90;;;5.15;65.91;95315.97;5008948;28;20474;-56
2023/12/31 04:57:39;;;;;;;31.73;17.63;;;5.30;99.90;;;5.10;66.17;95310.22;5008866;28;20457;-58
2023/12/31 05:00:08;;;;;;;28.73;16.17;;;5.30;99.90;;;5.08;65.71;95306.84;5008612;28;20474;-58
2023/12/31 05:02:36;;;;;;;27.83;16.60;;;5.20;99.90;;;5.05;66.10;95309.66;5008126;28;20529;-57
2023/12/31 05:05:05;;;;;;;27.23;15.40;;;5.20;99.90;;;4.99;65.69;95309.09;5008676;28;20483;-55
2023/12/31 05:07:32;;;;;;;25.03;16.03;;;5.20;99.90;;;4.96;66.01;95303.25;5009033;28;20493;-58
2023/12/31 05:09:59;;;;;;;33.30;17.63;;;5.10;99.90;;;4.93;66.04;95299.06;5008589;28;20996;-58
2023/12/31 05:12:27;;;;;;;24.27;15.70;;;5.10;99.90;;;4.90;65.84;95303.63;5008455;28;20457;-58
2023/12/31 05:14:54;;;;;;;31.80;18.10;;;5.10;99.90;;;4.87;66.09;95303.81;5008498;28;20470;-58
2023/12/31 05:17:21;;;;;;;28.73;16.37;;;5.00;99.90;;;4.82;66.18;95311.94;5008453;28;20536;-58
2023/12/31 05:19:50;;;;;;;26.43;15.57;;;5.00;99.90;;;4.78;66.08;95305.22;5008997;28;20469;-57
2023/12/31 05:22:17;;;;;;;33.97;18.03;;;4.90;99.90;;;4.75;66.09;95313.22;5008609;28;20446;-58
2023/12/31 05:24:44;;;;;;;27.47;17.67;;;4.90;99.90;;;4.71;66.37;95312.56;5008362;28;20473;-58
2023/12/31 05:27:11;;;;;;;38.27;18.63;;;4.90;99.90;;;4.69;66.48;95311.00;5008200;28;20496;-58
2023/12/31 05:29:39;;;;;;;29.67;19.33;;;4.80;99.90;;;4.66;66.17;95305.03;5008322;28;20473;-57
2023/12/31 05:32:06;;;;;;;32.67;19.27;;;4.80;99.90;;;4.64;66.42;95303.44;5008096;28;20540;-57
2023/12/31 05:34:34;;;;;;;28.17;18.40;;;4.80;99.90;;;4.62;66.25;95306.16;5007503;28;20997;-58
2023/12/31 05:37:02;;;;;;;33.27;16.93;;;4.80;99.90;;;4.61;66.47;95304.47;5008391;28;20788;-58
2023/12/31 05:39:30;;;;;;;29.63;18.97;;;4.80;99.90;;;4.61;66.38;95304.47;5008541;28;20785;-56
2023/12/31 05:41:57;;;;;;;32.53;19.60;;;4.80;99.90;;;4.59;67.07;95311.53;5008866;28;20460;-55
2023/12/31 05:44:24;;;;;;;29.60;19.80;;;4.80;99.90;;;4.58;66.44;95309.84;5012458;28;20461;-55
2023/12/31 05:46:51;;;;;;;33.00;20.23;;;4.70;99.90;;;4.59;66.31;95314.16;5012346;28;20501;-58
2023/12/31 05:49:19;;;;;;;39.43;20.43;;;4.80;99.90;;;4.59;66.77;95311.53;5012451;28;20457;-58
2023/12/31 05:51:46;;;;;;;37.07;19.80;;;4.80;99.90;;;4.60;66.39;95312.38;5011689;28;20461;-57
2023/12/31 05:54:14;;;;;;;32.03;20.23;;;4.70;99.90;;;4.58;66.58;95309.03;5011802;28;20461;-58
2023/12/31 05:56:42;;;;;;;33.93;19.20;;;4.70;99.90;;;4.56;66.85;95316.94;5011679;28;21174;-56
2023/12/31 05:59:09;;;;;;;46.67;20.97;;;4.70;99.90;;;4.55;67.08;95306.59;5011848;28;20453;-57
2023/12/31 06:01:36;;;;;;;29.43;18.67;;;4.70;99.90;;;4.53;67.62;95309.31;5011462;28;20562;-54
2023/12/31 06:04:05;;;;;;;43.80;20.30;;;4.70;99.90;;;4.54;66.68;95310.13;5011107;28;20453;-59
2023/12/31 06:06:36;;;;;;;34.27;20.70;;;4.70;99.90;;;4.53;67.10;95301.50;5011718;28;20558;-57
2023/12/31 06:09:03;;;;;;;35.83;21.17;;;4.70;99.90;;;4.54;67.15;95313.59;5011714;28;20528;-57
2023/12/31 06:11:32;;;;;;;41.93;20.80;;;4.70;99.90;;;4.55;67.20;95315.25;5011761;28;20555;-58
2023/12/31 06:14:02;;;;;;;35.47;20.63;;;4.70;99.90;;;4.55;67.16;95320.47;5011391;28;20457;-59
2023/12/31 06:16:30;;;;;;;38.60;20.67;;;4.70;99.90;;;4.56;67.19;95319.53;5011761;28;20579;-58
2023/12/31 06:18:57;;;;;;;44.43;21.77;;;4.70;99.90;;;4.57;67.31;95313.41;5011556;28;20504;-58
2023/12/31 06:21:24;;;;;;;44.57;21.40;;;4.70;99.90;;;4.58;67.19;95317.66;5011411;28;20579;-58
2023/12/31 06:23:52;;;;;;;40.93;19.87;;;4.70;99.90;;;4.60;66.86;95323.66;5011255;28;20536;-55
2023/12/31 06:26:19;;;;;;;28.07;19.20;;;4.70;99.90;;;4.61;67.65;95321.88;5010896;28;20493;-55
2023/12/31 06:28:48;;;;;;;38.70;19.70;;;4.80;99.90;;;4.77;67.29;95321.78;5011479;28;20461;-57
2023/12/31 06:31:15;;;;;;;32.57;18.87;;;4.90;99.90;;;5.12;67.12;95324.00;5010648;28;20466;-56
2023/12/31 06:33:42;;;;;;;34.50;20.10;;;5.20;99.90;;;5.59;66.22;95325.34;5010764;28;20457;-60
2023/12/31 06:36:10;;;;;;;33.07;19.37;;;5.60;99.90;;;6.05;65.82;95324.19;5011374;28;20516;-56
2023/12/31 06:38:37;;;;;;;34.50;21.60;;;6.10;99.90;;;6.60;64.04;95330.94;5011242;28;20926;-59
2023/12/31 06:41:08;;;;;;;42.23;23.57;;;6.70;99.90;;;7.25;63.13;95323.03;5011385;28;20480;-58
2023/12/31 06:43:35;;;;;;;34.97;22.30;;;7.40;99.90;;;7.85;61.57;95332.69;5011550;28;20564;-59
2023/12/31 06:46:04;;;;;;;46.20;26.63;;;8.00;99.40;;;8.26;60.26;95334.03;5011047;28;20473;-57
2023/12/31 06:48:31;;;;;;;47.40;26.50;;;8.50;98.00;;;8.21;59.39;95333.53;5011243;28;20450;-58
2023/12/31 06:50:59;;;;;;;46.90;27.17;;;8.50;96.70;;;7.95;59.14;95337.22;5010739;28;21036;-58
2023/12/31 06:53:27;;;;;;;43.40;25.20;;;8.30;96.20;;;7.62;59.50;95341.34;5010030;28;20453;-57
2023/12/31 06:55:54;;;;;;;46.27;25.40;;;8.00;96.10;;;7.30;60.29;95336.63;5010653;28;20477;-59
2023/12/31 06:58:22;;;;;;;55.80;29.37;;;7.60;96.50;;;7.00;60.69;95338.69;5010573;28;20454;-60
2023/12/31 07:00:49;;;;;;;49.07;29.43;;;7.30;96.80;;;6.74;60.68;95343.09;5010303;28;20469;-56
2023/12/31 07:03:18;;;;;;;58.00;31.77;;;7.00;97.30;;;6.70;61.24;95341.59;5010006;28;20477;-55
2023/12/31 07:05:47;;;;;;;55.13;29.37;;;7.00;98.20;;;7.20;61.91;95339.03;5010258;28;20892;-56
2023/12/31 07:08:15;;;;;;;55.13;29.63;;;7.30;98.80;;;8.06;60.53;95337.28;5010618;28;20577;-60
2023/12/31 07:10:43;;;;;;;50.27;29.20;;;8.10;98.70;;;8.95;59.46;95328.00;5006748;28;20473;-59
2023/12/31 07:13:10;;;;;;;49.93;30.97;;;8.90;97.90;;;9.85;57.74;95334.94;5010591;28;20454;-58
2023/12/31 07:15:38;;;;;;;60.37;31.97;;;9.80;96.70;;;10.66;56.20;95337.13;5010381;28;20557;-59
2023/12/31 07:18:05;;;;;;;64.17;35.47;;;10.60;94.80;;;11.44;54.86;95340.13;5010624;28;20480;-58
2023/12/31 07:20:34;;;;;;;58.10;34.00;;;11.50;93.70;;;12.18;53.43;95336.28;5010364;28;20987;-57
2023/12/31 07:23:03;;;;;;;56.53;32.60;;;12.30;92.10;;;12.84;52.26;95333.84;5010423;28;21113;-60
2023/12/31 07:25:32;;;;;;;52.23;30.20;;;13.00;90.80;;;13.44;51.05;95329.09;5005093;28;20477;-57
2023/12/31 07:27:59;;;;;;;51.00;29.30;;;13.70;88.70;;;13.98;49.68;95329.22;5009780;28;20539;-55
2023/12/31 07:30:27;;;;;;;51.57;30.83;;;14.30;85.50;;;14.47;48.52;95330.69;5006526;28;20576;-56
2023/12/31 07:32:54;;;;;;;47.40;28.73;;;14.80;81.60;;;14.93;47.93;95336.69;5004892;28;20450;-57
2023/12/31 07:35:21;;;;;;;52.53;29.70;;;15.30;80.90;;;15.35;47.14;95329.81;5009998;28;20597;-58
2023/12/31 07:37:52;;;;;;;45.37;28.23;;;15.80;78.40;;;15.74;45.72;95332.81;5010057;28;20567;-59
2023/12/31 07:40:19;;;;;;;36.80;23.90;;;16.30;74.80;;;16.12;45.33;95327.13;5009497;28;20895;-59
2023/12/31 07:42:47;;;;;;;37.07;21.90;;;16.70;72.50;;;16.46;44.22;95326.19;5006391;28;20866;-59
2023/12/31 07:45:14;;;;;;;40.40;25.40;;;16.90;70.00;;;16.74;43.73;95324.03;5006249;28;20667;-58
2023/12/31 07:47:42;;;;;;;56.83;32.00;;;17.10;70.20;;;16.99;43.84;95321.38;5006056;28;20493;-60
2023/12/31 07:50:10;;;;;;;48.40;30.20;;;17.30;69.30;;;17.22;43.05;95326.00;5005979;28;20512;-59
2023/12/31 07:52:38;;;;;;;35.33;24.53;;;17.50;68.00;;;17.47;42.05;95321.44;5006180;28;20545;-59
2023/12/31 07:55:09;;;;;;;44.10;25.20;;;17.70;65.80;;;17.71;42.23;95331.16;5006007;28;20478;-60
2023/12/31 07:57:36;;;;;;;34.80;24.00;;;17.80;65.30;;;17.87;40.79;95324.94;5009395;28;20800;-60
2023/12/31 08:00:05;;;;;;;35.37;23.33;;;17.80;64.20;;;17.95;40.99;95330.25;5009036;28;20473;-61
2023/12/31 08:02:32;;;;;;;40.50;25.77;;;17.90;64.00;;;18.03;41.23;95335.53;5008715;28;20548;-61
2023/12/31 08:04:59;;;;;;;39.90;24.83;;;17.90;63.40;;;18.13;40.81;95337.16;5009184;28;20484;-58
2023/12/31 08:07:27;;;;;;;37.10;25.93;;;17.90;63.50;;;18.27;40.77;95334.56;5009397;28;21021;-62
2023/12/31 08:09:54;;;;;;;38.50;25.67;;;18.00;63.50;;;18.44;40.88;95334.47;5009957;28;20480;-58
2023/12/31 08:12:23;;;;;;;34.23;24.47;;;18.20;63.40;;;18.64;40.58;95337.47;5009388;28;20826;-58
2023/12/31 08:14:51;;;;;;;34.50;23.83;;;18.40;63.00;;;18.87;40.33;95340.16;5009723;28;20475;-62
2023/12/31 08:17:18;;;;;;;43.83;23.83;;;18.60;62.30;;;19.08;39.25;95338.63;5009859;28;20488;-63
2023/12/31 08:19:46;;;;;;;45.77;27.20;;;18.80;60.40;;;19.26;38.93;95349.78;5009799;28;20840;-63
2023/12/31 08:22:13;;;;;;;43.03;26.90;;;19.00;59.20;;;19.43;39.48;95341.63;5009739;28;20450;-62
2023/12/31 08:24:40;;;;;;;45.30;29.07;;;19.10;60.70;;;19.66;38.92;95341.53;5009371;28;20981;-63
2023/12/31 08:27:08;;;;;;;36.47;25.30;;;19.30;59.70;;;19.82;37.38;95345.88;5009360;28;21009;-59
2023/12/31 08:29:37;;;;;;;39.63;25.17;;;19.40;58.40;;;19.92;37.99;95343.75;5008938;28;20481;-64
2023/12/31 08:32:04;;;;;;;33.10;22.63;;;19.50;58.30;;;19.98;38.25;95340.31;5005134;28;20454;-58
2023/12/31 08:34:32;;;;;;;32.70;22.60;;;19.60;58.40;;;20.10;37.95;95343.34;5009236;28;20827;-59
2023/12/31 08:36:59;;;;;;;36.10;23.50;;;19.70;58.20;;;20.26;37.80;95336.94;5008863;28;20469;-60
2023/12/31 08:39:26;;;;;;;34.27;23.83;;;19.80;58.00;;;20.32;37.01;95341.53;5009089;28;20590;-59
2023/12/31 08:41:55;;;;;;;42.67;26.83;;;19.90;56.30;;;20.33;37.41;95340.53;5006015;28;20576;-60
2023/12/31 08:44:23;;;;;;;42.90;27.60;;;19.90;57.20;;;20.46;37.16;95341.69;5005861;28;20460;-66
2023/12/31 08:46:51;;;;;;;39.63;25.20;;;20.00;56.80;;;20.60;36.91;95346.16;5009080;28;20453;-62
2023/12/31 08:49:19;;;;;;;37.90;24.37;;;20.20;56.50;;;20.70;35.37;95335.19;5009166;28;20454;-65
2023/12/31 08:51:46;;;;;;;32.53;24.10;;;20.30;54.20;;;20.72;36.40;95339.31;5006469;28;20501;-61
2023/12/31 08:54:14;;;;;;;33.97;23.67;;;20.30;55.60;;;20.81;36.51;95334.66;5008020;28;20469;-66
2023/12/31 08:56:41;;;;;;;34.20;22.67;;;20.40;55.60;;;20.94;36.10;95341.97;5009051;28;20461;-62
2023/12/31 08:59:08;;;;;;;28.43;22.33;;;20.50;55.00;;;21.03;35.83;95340.81;5009345;28;20462;-68
2023/12/31 09:01:36;;;;;;;32.40;22.70;;;20.60;54.80;;;21.08;35.99;95335.69;5004498;28;20512;-66
2023/12/31 09:04:05;;;;;;;34.27;24.27;;;20.70;54.90;;;21.17;34.72;95325.69;5005194;28;20454;-66
2023/12/31 09:06:33;;;;;;;36.30;25.20;;;20.70;53.50;;;21.27;35.53;95331.53;5005317;28;20472;-62
2023/12/31 09:09:00;;;;;;;29.97;23.77;;;20.80;54.30;;;21.41;35.29;95335.13;5008703;28;20501;-67
2023/12/31 09:11:27;;;;;;;41.00;27.13;;;21.00;54.30;;;21.57;35.06;95325.19;5008937;28;20474;-66
2023/12/31 09:13:54;;;;;;;40.33;26.83;;;21.10;53.80;;;21.71;34.28;95316.19;5005185;28;20453;-64
2023/12/31 09:16:22;;;;;;;38.10;26.77;;;21.30;54.10;;;21.87;34.30;95316.88;5006567;28;21024;-66
2023/12/31 09:18:49;;;;;;;43.00;28.00;;;21.40;53.30;;;21.99;33.69;95313.41;5013866;28;20460;-65
2023/12/31 09:21:18;;;;;;;39.83;28.20;;;21.60;51.80;;;22.06;33.65;95305.44;5008971;28;20474;-65
2023/12/31 09:23:45;;;;;;;43.43;28.80;;;21.60;51.40;;;22.09;34.00;95313.06;5008399;28;20549;-65
2023/12/31 09:26:13;;;;;;;44.27;28.87;;;21.70;51.60;;;22.12;33.63;95309.97;5008385;28;20512;-61
2023/12/31 09:28:42;;;;;;;47.00;29.33;;;21.70;51.80;;;22.27;34.02;95315.16;5008648;28;20516;-63
2023/12/31 09:31:10;;;;;;;45.87;28.50;;;21.80;52.00;;;22.37;33.14;95304.09;5011949;28;20914;-66
2023/12/31 09:33:38;;;;;;;43.57;27.83;;;21.90;51.60;;;22.47;32.87;95306.38;5010356;28;20981;-62
2023/12/31 09:36:06;;;;;;;39.50;27.90;;;22.00;51.20;;;22.60;33.13;95297.53;5008788;28;20489;-66
2023/12/31 09:38:35;;;;;;;42.47;29.60;;;22.10;50.90;;;22.71;33.30;95300.44;5009292;28;20575;-66
2023/12/31 09:41:05;;;;;;;47.23;29.77;;;22.20;50.60;;;22.88;33.30;95303.53;5012249;28;20477;-61
2023/12/31 09:43:33;;;;;;;44.53;27.57;;;22.30;51.00;;;23.12;32.78;95295.94;5012492;28;20450;-62
2023/12/31 09:46:00;;;;;;;61.27;29.40;;;22.50;50.60;;;23.33;31.99;95299.41;5011955;28;20556;-61
2023/12/31 09:48:27;;;;;;;38.17;28.83;;;22.70;50.30;;;23.54;32.59;95283.03;5012483;28;20493;-62
2023/12/31 09:50:55;;;;;;;40.70;29.97;;;23.00;50.00;;;23.73;32.00;95277.81;5012347;28;20813;-66
2023/12/31 09:53:23;;;;;;;40.80;28.27;;;23.20;49.50;;;24.01;31.75;95271.34;5009775;28;20527;-62
2023/12/31 09:55:56;;;;;;;40.97;27.63;;;23.40;49.00;;;24.10;30.41;95268.19;5011886;28;20516;-65
2023/12/31 09:58:24;;;;;;;41.90;28.80;;;23.60;46.90;;;24.09;31.37;95268.41;5012540;28;20564;-59
2023/12/31 10:00:51;;;;;;;44.93;28.80;;;23.60;48.00;;;24.24;31.31;95262.75;5012120;28;20500;-64
2023/12/31 10:03:18;;;;;;;45.60;30.70;;;23.60;48.10;;;24.44;30.42;95250.00;5011266;28;20466;-64
2023/12/31 10:05:46;;;;;;;50.70;32.30;;;23.90;47.50;;;24.64;30.87;95252.56;5011651;28;20477;-60
2023/12/31 10:08:13;;;;;;;46.63;29.53;;;24.00;47.70;;;24.85;30.32;95254.09;5012169;28;20495;-60
2023/12/31 10:10:40;;;;;;;53.07;31.70;;;24.20;47.00;;;25.14;29.59;95249.03;5010713;28;20853;-61
2023/12/31 10:13:15;;;;;;;46.67;31.40;;;24.50;46.50;;;25.39;29.72;95242.81;5010662;28;20442;-64
2023/12/31 10:15:42;;;;;;;49.57;33.60;;;24.70;46.70;;;25.64;29.42;95237.38;5011437;28;20666;-64
2023/12/31 10:18:10;;;;;;;50.20;35.07;;;24.90;46.40;;;25.92;29.27;95234.13;5011899;28;20590;-64